sensor_id;sensor_type;location;lat;lon;timestamp;P1;durP1;ratioP1;P2;durP2;ratioP2
67747;SDS011;54543;50.712;6.070;2023-07-30T00:01:14;3.00;;;2.08;;
67747;SDS011;54543;50.712;6.070;2023-07-30T00:03:39;3.25;;;2.08;;
67747;SDS011;54543;50.712;6.070;2023-07-30T00:06:05;4.30;;;2.53;;
67747;SDS011;54543;50.712;6.070;2023-07-30T00:08:30;3.10;;;1.98;;
67747;SDS011;54543;50.712;6.070;2023-07-30T00:10:56;3.20;;;1.90;;
67747;SDS011;54543;50.712;6.070;2023-07-30T00:13:23;3.25;;;1.90;;
67747;SDS011;54543;50.712;6.070;2023-07-30T00:15:48;3.92;;;2.00;;
67747;SDS011;54543;50.712;6.070;2023-07-30T00:18:14;3.03;;;1.80;;
67747;SDS011;54543;50.712;6.070;2023-07-30T00:20:40;2.45;;;1.60;;
67747;SDS011;54543;50.712;6.070;2023-07-30T00:23:06;2.88;;;2.00;;
67747;SDS011;54543;50.712;6.070;2023-07-30T00:25:31;5.32;;;2.00;;
67747;SDS011;54543;50.712;6.070;2023-07-30T00:27:57;3.85;;;2.08;;
67747;SDS011;54543;50.712;6.070;2023-07-30T00:30:22;2.65;;;1.85;;
67747;SDS011;54543;50.712;6.070;2023-07-30T00:32:48;2.35;;;1.88;;
67747;SDS011;54543;50.712;6.070;2023-07-30T00:35:13;2.80;;;1.70;;
67747;SDS011;54543;50.712;6.070;2023-07-30T00:37:42;2.38;;;1.65;;
67747;SDS011;54543;50.712;6.070;2023-07-30T00:40:07;3.90;;;1.77;;
67747;SDS011;54543;50.712;6.070;2023-07-30T00:42:33;3.20;;;1.75;;
67747;SDS011;54543;50.712;6.070;2023-07-30T00:44:59;2.88;;;1.67;;
67747;SDS011;54543;50.712;6.070;2023-07-30T00:47:24;4.25;;;1.63;;
67747;SDS011;54543;50.712;6.070;2023-07-30T00:49:51;2.85;;;1.90;;
67747;SDS011;54543;50.712;6.070;2023-07-30T00:52:18;3.58;;;1.77;;
67747;SDS011;54543;50.712;6.070;2023-07-30T00:54:46;3.50;;;2.00;;
67747;SDS011;54543;50.712;6.070;2023-07-30T00:57:13;5.85;;;2.00;;
67747;SDS011;54543;50.712;6.070;2023-07-30T00:59:39;3.95;;;1.90;;
67747;SDS011;54543;50.712;6.070;2023-07-30T01:02:05;3.47;;;2.08;;
67747;SDS011;54543;50.712;6.070;2023-07-30T01:04:31;3.42;;;2.03;;
67747;SDS011;54543;50.712;6.070;2023-07-30T01:06:57;4.35;;;2.22;;
67747;SDS011;54543;50.712;6.070;2023-07-30T01:09:23;2.80;;;1.90;;
67747;SDS011;54543;50.712;6.070;2023-07-30T01:11:49;2.90;;;2.10;;
67747;SDS011;54543;50.712;6.070;2023-07-30T01:14:17;3.28;;;1.73;;
67747;SDS011;54543;50.712;6.070;2023-07-30T01:16:44;4.95;;;2.80;;
67747;SDS011;54543;50.712;6.070;2023-07-30T01:19:10;3.28;;;2.10;;
67747;SDS011;54543;50.712;6.070;2023-07-30T01:21:35;3.35;;;1.83;;
67747;SDS011;54543;50.712;6.070;2023-07-30T01:24:01;3.58;;;2.00;;
67747;SDS011;54543;50.712;6.070;2023-07-30T01:26:30;3.20;;;1.67;;
67747;SDS011;54543;50.712;6.070;2023-07-30T01:29:00;3.33;;;1.85;;
67747;SDS011;54543;50.712;6.070;2023-07-30T01:31:26;2.95;;;1.85;;
67747;SDS011;54543;50.712;6.070;2023-07-30T01:33:55;3.70;;;1.98;;
67747;SDS011;54543;50.712;6.070;2023-07-30T01:36:21;3.55;;;1.67;;
67747;SDS011;54543;50.712;6.070;2023-07-30T01:38:50;3.20;;;1.90;;
67747;SDS011;54543;50.712;6.070;2023-07-30T01:41:16;5.13;;;2.20;;
67747;SDS011;54543;50.712;6.070;2023-07-30T01:43:41;4.80;;;2.05;;
67747;SDS011;54543;50.712;6.070;2023-07-30T01:46:07;5.57;;;2.03;;
67747;SDS011;54543;50.712;6.070;2023-07-30T01:48:32;3.40;;;2.10;;
67747;SDS011;54543;50.712;6.070;2023-07-30T01:50:58;2.30;;;1.67;;
67747;SDS011;54543;50.712;6.070;2023-07-30T01:53:23;4.05;;;1.77;;
67747;SDS011;54543;50.712;6.070;2023-07-30T01:55:49;2.92;;;1.70;;
67747;SDS011;54543;50.712;6.070;2023-07-30T01:58:14;3.78;;;2.13;;
67747;SDS011;54543;50.712;6.070;2023-07-30T02:00:40;6.40;;;2.15;;
67747;SDS011;54543;50.712;6.070;2023-07-30T02:03:06;4.22;;;2.33;;
67747;SDS011;54543;50.712;6.070;2023-07-30T02:05:32;3.70;;;2.05;;
67747;SDS011;54543;50.712;6.070;2023-07-30T02:07:57;3.95;;;2.13;;
67747;SDS011;54543;50.712;6.070;2023-07-30T02:10:24;6.10;;;3.22;;
67747;SDS011;54543;50.712;6.070;2023-07-30T02:12:50;6.40;;;2.65;;
67747;SDS011;54543;50.712;6.070;2023-07-30T02:15:16;6.75;;;2.50;;
67747;SDS011;54543;50.712;6.070;2023-07-30T02:17:41;5.65;;;2.50;;
67747;SDS011;54543;50.712;6.070;2023-07-30T02:20:08;6.45;;;2.55;;
67747;SDS011;54543;50.712;6.070;2023-07-30T02:22:34;5.53;;;2.40;;
67747;SDS011;54543;50.712;6.070;2023-07-30T02:25:00;5.57;;;2.63;;
67747;SDS011;54543;50.712;6.070;2023-07-30T02:27:25;3.63;;;2.17;;
67747;SDS011;54543;50.712;6.070;2023-07-30T02:29:51;4.60;;;2.63;;
67747;SDS011;54543;50.712;6.070;2023-07-30T02:32:16;4.05;;;2.20;;
67747;SDS011;54543;50.712;6.070;2023-07-30T02:34:42;7.35;;;2.25;;
67747;SDS011;54543;50.712;6.070;2023-07-30T02:37:07;4.95;;;2.42;;
67747;SDS011;54543;50.712;6.070;2023-07-30T02:39:33;5.15;;;2.30;;
67747;SDS011;54543;50.712;6.070;2023-07-30T02:41:58;3.97;;;2.33;;
67747;SDS011;54543;50.712;6.070;2023-07-30T02:44:23;3.47;;;2.10;;
67747;SDS011;54543;50.712;6.070;2023-07-30T02:46:49;5.47;;;2.80;;
67747;SDS011;54543;50.712;6.070;2023-07-30T02:49:14;5.78;;;2.38;;
67747;SDS011;54543;50.712;6.070;2023-07-30T02:51:40;4.18;;;2.00;;
67747;SDS011;54543;50.712;6.070;2023-07-30T02:54:06;5.78;;;2.00;;
67747;SDS011;54543;50.712;6.070;2023-07-30T02:56:32;4.57;;;1.70;;
67747;SDS011;54543;50.712;6.070;2023-07-30T02:58:58;5.38;;;2.08;;
67747;SDS011;54543;50.712;6.070;2023-07-30T03:01:24;4.00;;;1.90;;
67747;SDS011;54543;50.712;6.070;2023-07-30T03:03:50;5.07;;;2.00;;
67747;SDS011;54543;50.712;6.070;2023-07-30T03:06:15;3.40;;;1.75;;
67747;SDS011;54543;50.712;6.070;2023-07-30T03:08:45;4.47;;;1.98;;
67747;SDS011;54543;50.712;6.070;2023-07-30T03:11:10;4.05;;;1.90;;
67747;SDS011;54543;50.712;6.070;2023-07-30T03:13:35;7.18;;;3.33;;
67747;SDS011;54543;50.712;6.070;2023-07-30T03:16:01;5.15;;;2.10;;
67747;SDS011;54543;50.712;6.070;2023-07-30T03:18:27;5.78;;;2.35;;
67747;SDS011;54543;50.712;6.070;2023-07-30T03:20:57;5.03;;;2.08;;
67747;SDS011;54543;50.712;6.070;2023-07-30T03:23:26;5.32;;;2.42;;
67747;SDS011;54543;50.712;6.070;2023-07-30T03:25:52;6.53;;;2.25;;
67747;SDS011;54543;50.712;6.070;2023-07-30T03:28:18;4.40;;;2.15;;
67747;SDS011;54543;50.712;6.070;2023-07-30T03:30:43;6.22;;;2.20;;
67747;SDS011;54543;50.712;6.070;2023-07-30T03:33:09;6.03;;;2.38;;
67747;SDS011;54543;50.712;6.070;2023-07-30T03:35:34;5.75;;;2.08;;
67747;SDS011;54543;50.712;6.070;2023-07-30T03:38:00;5.20;;;2.35;;
67747;SDS011;54543;50.712;6.070;2023-07-30T03:40:25;4.88;;;1.50;;
67747;SDS011;54543;50.712;6.070;2023-07-30T03:42:51;4.50;;;1.88;;
67747;SDS011;54543;50.712;6.070;2023-07-30T03:45:16;4.22;;;2.22;;
67747;SDS011;54543;50.712;6.070;2023-07-30T03:47:42;4.88;;;1.90;;
67747;SDS011;54543;50.712;6.070;2023-07-30T03:50:07;5.22;;;2.00;;
67747;SDS011;54543;50.712;6.070;2023-07-30T03:52:33;3.83;;;1.70;;
67747;SDS011;54543;50.712;6.070;2023-07-30T03:54:59;4.35;;;1.90;;
67747;SDS011;54543;50.712;6.070;2023-07-30T03:57:24;5.13;;;1.95;;
67747;SDS011;54543;50.712;6.070;2023-07-30T03:59:50;3.25;;;1.80;;
67747;SDS011;54543;50.712;6.070;2023-07-30T04:02:15;4.25;;;2.10;;
67747;SDS011;54543;50.712;6.070;2023-07-30T04:04:41;5.50;;;2.20;;
67747;SDS011;54543;50.712;6.070;2023-07-30T04:07:09;5.43;;;2.15;;
67747;SDS011;54543;50.712;6.070;2023-07-30T04:09:35;5.35;;;2.15;;
67747;SDS011;54543;50.712;6.070;2023-07-30T04:12:01;5.95;;;2.63;;
67747;SDS011;54543;50.712;6.070;2023-07-30T04:14:27;5.22;;;2.08;;
67747;SDS011;54543;50.712;6.070;2023-07-30T04:16:53;3.60;;;1.80;;
67747;SDS011;54543;50.712;6.070;2023-07-30T04:19:18;4.65;;;1.90;;
67747;SDS011;54543;50.712;6.070;2023-07-30T04:21:44;5.88;;;1.85;;
67747;SDS011;54543;50.712;6.070;2023-07-30T04:24:09;5.57;;;2.20;;
67747;SDS011;54543;50.712;6.070;2023-07-30T04:26:35;5.35;;;2.03;;
67747;SDS011;54543;50.712;6.070;2023-07-30T04:29:00;3.88;;;1.90;;
67747;SDS011;54543;50.712;6.070;2023-07-30T04:31:26;9.30;;;4.00;;
67747;SDS011;54543;50.712;6.070;2023-07-30T04:33:51;8.10;;;3.13;;
67747;SDS011;54543;50.712;6.070;2023-07-30T04:36:17;4.88;;;2.60;;
67747;SDS011;54543;50.712;6.070;2023-07-30T04:38:42;7.95;;;2.38;;
67747;SDS011;54543;50.712;6.070;2023-07-30T04:41:08;4.30;;;2.13;;
67747;SDS011;54543;50.712;6.070;2023-07-30T04:43:33;4.72;;;2.20;;
67747;SDS011;54543;50.712;6.070;2023-07-30T04:45:59;4.60;;;2.10;;
67747;SDS011;54543;50.712;6.070;2023-07-30T04:48:24;5.80;;;2.13;;
67747;SDS011;54543;50.712;6.070;2023-07-30T04:50:50;3.22;;;1.73;;
67747;SDS011;54543;50.712;6.070;2023-07-30T04:53:15;5.22;;;2.70;;
67747;SDS011;54543;50.712;6.070;2023-07-30T04:55:42;4.80;;;1.80;;
67747;SDS011;54543;50.712;6.070;2023-07-30T04:58:07;7.75;;;3.55;;
67747;SDS011;54543;50.712;6.070;2023-07-30T05:00:33;4.72;;;2.92;;
67747;SDS011;54543;50.712;6.070;2023-07-30T05:02:59;4.13;;;2.78;;
67747;SDS011;54543;50.712;6.070;2023-07-30T05:05:24;5.18;;;2.53;;
67747;SDS011;54543;50.712;6.070;2023-07-30T05:07:50;4.90;;;2.30;;
67747;SDS011;54543;50.712;6.070;2023-07-30T05:10:15;3.00;;;1.92;;
67747;SDS011;54543;50.712;6.070;2023-07-30T05:12:41;5.95;;;3.67;;
67747;SDS011;54543;50.712;6.070;2023-07-30T05:15:07;5.32;;;2.30;;
67747;SDS011;54543;50.712;6.070;2023-07-30T05:17:32;4.28;;;2.45;;
67747;SDS011;54543;50.712;6.070;2023-07-30T05:19:58;4.90;;;2.45;;
67747;SDS011;54543;50.712;6.070;2023-07-30T05:22:24;5.85;;;3.05;;
67747;SDS011;54543;50.712;6.070;2023-07-30T05:24:50;9.77;;;4.95;;
67747;SDS011;54543;50.712;6.070;2023-07-30T05:27:16;6.68;;;3.72;;
67747;SDS011;54543;50.712;6.070;2023-07-30T05:29:41;6.45;;;3.22;;
67747;SDS011;54543;50.712;6.070;2023-07-30T05:32:07;7.45;;;3.60;;
67747;SDS011;54543;50.712;6.070;2023-07-30T05:34:33;7.50;;;3.15;;
67747;SDS011;54543;50.712;6.070;2023-07-30T05:36:59;5.35;;;3.28;;
67747;SDS011;54543;50.712;6.070;2023-07-30T05:39:24;5.32;;;3.28;;
67747;SDS011;54543;50.712;6.070;2023-07-30T05:41:51;9.00;;;5.80;;
67747;SDS011;54543;50.712;6.070;2023-07-30T05:44:17;7.13;;;3.78;;
67747;SDS011;54543;50.712;6.070;2023-07-30T05:46:42;7.65;;;5.63;;
67747;SDS011;54543;50.712;6.070;2023-07-30T05:49:08;7.43;;;5.20;;
67747;SDS011;54543;50.712;6.070;2023-07-30T05:51:34;4.85;;;3.42;;
67747;SDS011;54543;50.712;6.070;2023-07-30T05:53:59;5.55;;;3.42;;
67747;SDS011;54543;50.712;6.070;2023-07-30T05:56:25;5.70;;;3.00;;
67747;SDS011;54543;50.712;6.070;2023-07-30T05:58:50;5.03;;;2.42;;
67747;SDS011;54543;50.712;6.070;2023-07-30T06:01:16;2.70;;;1.75;;
67747;SDS011;54543;50.712;6.070;2023-07-30T06:03:42;3.58;;;2.22;;
67747;SDS011;54543;50.712;6.070;2023-07-30T06:06:07;3.60;;;1.92;;
67747;SDS011;54543;50.712;6.070;2023-07-30T06:08:33;4.72;;;2.08;;
67747;SDS011;54543;50.712;6.070;2023-07-30T06:11:02;5.45;;;2.10;;
67747;SDS011;54543;50.712;6.070;2023-07-30T06:13:28;3.13;;;1.52;;
67747;SDS011;54543;50.712;6.070;2023-07-30T06:15:54;3.80;;;1.85;;
67747;SDS011;54543;50.712;6.070;2023-07-30T06:18:20;4.13;;;1.85;;
67747;SDS011;54543;50.712;6.070;2023-07-30T06:20:45;4.28;;;1.70;;
67747;SDS011;54543;50.712;6.070;2023-07-30T06:23:11;3.28;;;1.77;;
67747;SDS011;54543;50.712;6.070;2023-07-30T06:25:36;5.07;;;1.90;;
67747;SDS011;54543;50.712;6.070;2023-07-30T06:28:04;6.05;;;1.73;;
67747;SDS011;54543;50.712;6.070;2023-07-30T06:30:30;3.63;;;1.70;;
67747;SDS011;54543;50.712;6.070;2023-07-30T06:32:55;3.70;;;1.90;;
67747;SDS011;54543;50.712;6.070;2023-07-30T06:35:21;3.30;;;1.50;;
67747;SDS011;54543;50.712;6.070;2023-07-30T06:37:47;2.47;;;1.40;;
67747;SDS011;54543;50.712;6.070;2023-07-30T06:40:12;5.05;;;1.55;;
67747;SDS011;54543;50.712;6.070;2023-07-30T06:42:37;2.95;;;1.90;;
67747;SDS011;54543;50.712;6.070;2023-07-30T06:45:03;6.90;;;1.70;;
67747;SDS011;54543;50.712;6.070;2023-07-30T06:47:29;2.50;;;1.60;;
67747;SDS011;54543;50.712;6.070;2023-07-30T06:49:54;3.65;;;1.67;;
67747;SDS011;54543;50.712;6.070;2023-07-30T06:52:20;4.95;;;2.08;;
67747;SDS011;54543;50.712;6.070;2023-07-30T06:54:45;5.28;;;1.85;;
67747;SDS011;54543;50.712;6.070;2023-07-30T06:57:11;3.88;;;1.88;;
67747;SDS011;54543;50.712;6.070;2023-07-30T06:59:36;5.47;;;2.03;;
67747;SDS011;54543;50.712;6.070;2023-07-30T07:02:02;5.95;;;3.78;;
67747;SDS011;54543;50.712;6.070;2023-07-30T07:04:27;6.03;;;2.83;;
67747;SDS011;54543;50.712;6.070;2023-07-30T07:06:53;5.85;;;2.85;;
67747;SDS011;54543;50.712;6.070;2023-07-30T07:09:18;8.30;;;2.60;;
67747;SDS011;54543;50.712;6.070;2023-07-30T07:11:44;5.50;;;2.70;;
67747;SDS011;54543;50.712;6.070;2023-07-30T07:14:10;6.30;;;2.75;;
67747;SDS011;54543;50.712;6.070;2023-07-30T07:16:35;7.10;;;1.98;;
67747;SDS011;54543;50.712;6.070;2023-07-30T07:19:01;3.67;;;2.45;;
67747;SDS011;54543;50.712;6.070;2023-07-30T07:21:26;4.40;;;2.10;;
67747;SDS011;54543;50.712;6.070;2023-07-30T07:23:53;7.43;;;2.50;;
67747;SDS011;54543;50.712;6.070;2023-07-30T07:26:18;7.15;;;2.17;;
67747;SDS011;54543;50.712;6.070;2023-07-30T07:28:44;5.40;;;1.92;;
67747;SDS011;54543;50.712;6.070;2023-07-30T07:31:09;4.05;;;2.05;;
67747;SDS011;54543;50.712;6.070;2023-07-30T07:33:34;6.85;;;2.55;;
67747;SDS011;54543;50.712;6.070;2023-07-30T07:36:03;5.38;;;2.15;;
67747;SDS011;54543;50.712;6.070;2023-07-30T07:38:29;4.85;;;1.63;;
67747;SDS011;54543;50.712;6.070;2023-07-30T07:40:55;7.63;;;2.45;;
67747;SDS011;54543;50.712;6.070;2023-07-30T07:43:20;4.82;;;2.05;;
67747;SDS011;54543;50.712;6.070;2023-07-30T07:45:46;8.50;;;2.20;;
67747;SDS011;54543;50.712;6.070;2023-07-30T07:48:11;5.05;;;2.05;;
67747;SDS011;54543;50.712;6.070;2023-07-30T07:50:37;4.53;;;2.40;;
67747;SDS011;54543;50.712;6.070;2023-07-30T07:53:02;8.35;;;2.45;;
67747;SDS011;54543;50.712;6.070;2023-07-30T07:55:28;4.15;;;2.33;;
67747;SDS011;54543;50.712;6.070;2023-07-30T07:57:54;7.60;;;2.33;;
67747;SDS011;54543;50.712;6.070;2023-07-30T08:00:19;7.22;;;1.95;;
67747;SDS011;54543;50.712;6.070;2023-07-30T08:02:45;6.80;;;2.20;;
67747;SDS011;54543;50.712;6.070;2023-07-30T08:05:10;6.65;;;2.50;;
67747;SDS011;54543;50.712;6.070;2023-07-30T08:07:36;9.85;;;2.50;;
67747;SDS011;54543;50.712;6.070;2023-07-30T08:10:02;4.38;;;2.15;;
67747;SDS011;54543;50.712;6.070;2023-07-30T08:12:27;6.00;;;2.28;;
67747;SDS011;54543;50.712;6.070;2023-07-30T08:14:53;8.05;;;2.53;;
67747;SDS011;54543;50.712;6.070;2023-07-30T08:17:21;6.45;;;2.40;;
67747;SDS011;54543;50.712;6.070;2023-07-30T08:19:47;5.65;;;2.28;;
67747;SDS011;54543;50.712;6.070;2023-07-30T08:22:12;10.15;;;2.30;;
67747;SDS011;54543;50.712;6.070;2023-07-30T08:24:39;6.18;;;2.10;;
67747;SDS011;54543;50.712;6.070;2023-07-30T08:27:04;5.63;;;2.35;;
67747;SDS011;54543;50.712;6.070;2023-07-30T08:29:30;8.02;;;2.42;;
67747;SDS011;54543;50.712;6.070;2023-07-30T08:31:55;6.18;;;2.67;;
67747;SDS011;54543;50.712;6.070;2023-07-30T08:34:21;7.28;;;2.80;;
67747;SDS011;54543;50.712;6.070;2023-07-30T08:36:48;8.48;;;2.05;;
67747;SDS011;54543;50.712;6.070;2023-07-30T08:39:13;6.90;;;2.60;;
67747;SDS011;54543;50.712;6.070;2023-07-30T08:41:39;8.30;;;2.50;;
67747;SDS011;54543;50.712;6.070;2023-07-30T08:44:05;5.57;;;2.70;;
67747;SDS011;54543;50.712;6.070;2023-07-30T08:46:31;5.32;;;2.20;;
67747;SDS011;54543;50.712;6.070;2023-07-30T08:48:57;6.45;;;2.00;;
67747;SDS011;54543;50.712;6.070;2023-07-30T08:51:23;8.95;;;2.80;;
67747;SDS011;54543;50.712;6.070;2023-07-30T08:53:51;6.07;;;2.25;;
67747;SDS011;54543;50.712;6.070;2023-07-30T08:56:17;7.68;;;2.17;;
67747;SDS011;54543;50.712;6.070;2023-07-30T08:58:43;8.18;;;2.35;;
67747;SDS011;54543;50.712;6.070;2023-07-30T09:01:11;8.13;;;2.35;;
67747;SDS011;54543;50.712;6.070;2023-07-30T09:03:38;5.03;;;2.20;;
67747;SDS011;54543;50.712;6.070;2023-07-30T09:06:05;4.50;;;2.05;;
67747;SDS011;54543;50.712;6.070;2023-07-30T09:08:30;6.32;;;2.40;;
67747;SDS011;54543;50.712;6.070;2023-07-30T09:10:57;6.63;;;2.10;;
67747;SDS011;54543;50.712;6.070;2023-07-30T09:13:35;6.30;;;2.05;;
67747;SDS011;54543;50.712;6.070;2023-07-30T09:16:08;7.03;;;2.40;;
67747;SDS011;54543;50.712;6.070;2023-07-30T09:18:41;5.80;;;2.35;;
67747;SDS011;54543;50.712;6.070;2023-07-30T09:21:09;5.90;;;2.00;;
67747;SDS011;54543;50.712;6.070;2023-07-30T09:23:40;5.82;;;2.00;;
67747;SDS011;54543;50.712;6.070;2023-07-30T09:26:10;3.92;;;1.90;;
67747;SDS011;54543;50.712;6.070;2023-07-30T09:28:35;6.20;;;2.30;;
67747;SDS011;54543;50.712;6.070;2023-07-30T09:31:02;5.47;;;2.15;;
67747;SDS011;54543;50.712;6.070;2023-07-30T09:33:28;6.25;;;2.28;;
67747;SDS011;54543;50.712;6.070;2023-07-30T09:35:53;6.72;;;1.88;;
67747;SDS011;54543;50.712;6.070;2023-07-30T09:38:20;8.30;;;2.30;;
67747;SDS011;54543;50.712;6.070;2023-07-30T09:40:46;3.85;;;1.85;;
67747;SDS011;54543;50.712;6.070;2023-07-30T09:43:15;6.07;;;1.77;;
67747;SDS011;54543;50.712;6.070;2023-07-30T09:45:43;3.22;;;1.75;;
67747;SDS011;54543;50.712;6.070;2023-07-30T09:48:11;8.48;;;2.05;;
67747;SDS011;54543;50.712;6.070;2023-07-30T09:50:37;4.70;;;1.70;;
67747;SDS011;54543;50.712;6.070;2023-07-30T09:53:03;3.10;;;1.70;;
67747;SDS011;54543;50.712;6.070;2023-07-30T09:55:29;4.07;;;1.90;;
67747;SDS011;54543;50.712;6.070;2023-07-30T09:57:55;3.80;;;1.70;;
67747;SDS011;54543;50.712;6.070;2023-07-30T10:00:20;5.10;;;2.10;;
67747;SDS011;54543;50.712;6.070;2023-07-30T10:02:47;5.07;;;2.00;;
67747;SDS011;54543;50.712;6.070;2023-07-30T10:05:20;5.18;;;1.90;;
67747;SDS011;54543;50.712;6.070;2023-07-30T10:07:49;3.25;;;1.67;;
67747;SDS011;54543;50.712;6.070;2023-07-30T10:10:21;3.83;;;2.10;;
67747;SDS011;54543;50.712;6.070;2023-07-30T10:12:50;5.85;;;2.13;;
67747;SDS011;54543;50.712;6.070;2023-07-30T10:15:19;5.35;;;1.77;;
67747;SDS011;54543;50.712;6.070;2023-07-30T10:17:49;5.25;;;1.75;;
67747;SDS011;54543;50.712;6.070;2023-07-30T10:22:56;4.05;;;1.73;;
67747;SDS011;54543;50.712;6.070;2023-07-30T10:26:08;5.25;;;1.70;;
67747;SDS011;54543;50.712;6.070;2023-07-30T10:30:56;2.67;;;1.60;;
67747;SDS011;54543;50.712;6.070;2023-07-30T10:33:24;6.18;;;2.70;;
67747;SDS011;54543;50.712;6.070;2023-07-30T10:36:14;3.92;;;1.90;;
67747;SDS011;54543;50.712;6.070;2023-07-30T10:38:42;3.90;;;1.60;;
67747;SDS011;54543;50.712;6.070;2023-07-30T10:41:12;3.42;;;1.60;;
67747;SDS011;54543;50.712;6.070;2023-07-30T10:43:43;5.93;;;1.80;;
67747;SDS011;54543;50.712;6.070;2023-07-30T10:46:16;5.53;;;1.55;;
67747;SDS011;54543;50.712;6.070;2023-07-30T10:48:43;4.80;;;1.52;;
67747;SDS011;54543;50.712;6.070;2023-07-30T10:51:10;3.75;;;1.33;;
67747;SDS011;54543;50.712;6.070;2023-07-30T10:53:38;4.35;;;1.50;;
67747;SDS011;54543;50.712;6.070;2023-07-30T10:56:08;2.25;;;1.30;;
67747;SDS011;54543;50.712;6.070;2023-07-30T10:58:36;5.07;;;1.63;;
67747;SDS011;54543;50.712;6.070;2023-07-30T11:01:05;4.00;;;1.60;;
67747;SDS011;54543;50.712;6.070;2023-07-30T11:03:33;4.82;;;1.92;;
67747;SDS011;54543;50.712;6.070;2023-07-30T11:05:59;6.72;;;1.70;;
67747;SDS011;54543;50.712;6.070;2023-07-30T11:08:35;3.15;;;1.30;;
67747;SDS011;54543;50.712;6.070;2023-07-30T11:11:05;4.75;;;1.65;;
67747;SDS011;54543;50.712;6.070;2023-07-30T11:13:35;2.40;;;1.30;;
67747;SDS011;54543;50.712;6.070;2023-07-30T11:16:07;5.55;;;1.70;;
67747;SDS011;54543;50.712;6.070;2023-07-30T11:18:33;5.50;;;1.70;;
67747;SDS011;54543;50.712;6.070;2023-07-30T11:21:08;3.83;;;1.50;;
67747;SDS011;54543;50.712;6.070;2023-07-30T11:23:39;3.75;;;1.80;;
67747;SDS011;54543;50.712;6.070;2023-07-30T11:26:07;5.45;;;1.80;;
67747;SDS011;54543;50.712;6.070;2023-07-30T11:28:34;3.58;;;1.70;;
67747;SDS011;54543;50.712;6.070;2023-07-30T11:31:02;6.00;;;2.15;;
67747;SDS011;54543;50.712;6.070;2023-07-30T11:33:32;8.18;;;2.53;;
67747;SDS011;54543;50.712;6.070;2023-07-30T11:36:05;7.00;;;2.00;;
67747;SDS011;54543;50.712;6.070;2023-07-30T11:38:35;4.30;;;1.90;;
67747;SDS011;54543;50.712;6.070;2023-07-30T11:41:02;4.57;;;1.67;;
67747;SDS011;54543;50.712;6.070;2023-07-30T11:43:30;6.22;;;1.85;;
67747;SDS011;54543;50.712;6.070;2023-07-30T11:46:09;7.03;;;2.05;;
67747;SDS011;54543;50.712;6.070;2023-07-30T11:48:46;3.05;;;1.50;;
67747;SDS011;54543;50.712;6.070;2023-07-30T11:53:56;6.22;;;1.77;;
67747;SDS011;54543;50.712;6.070;2023-07-30T11:56:26;2.45;;;1.50;;
67747;SDS011;54543;50.712;6.070;2023-07-30T11:58:56;4.35;;;2.00;;
67747;SDS011;54543;50.712;6.070;2023-07-30T12:01:24;5.57;;;1.70;;
67747;SDS011;54543;50.712;6.070;2023-07-30T12:03:54;5.15;;;1.65;;
67747;SDS011;54543;50.712;6.070;2023-07-30T12:06:23;4.47;;;1.52;;
67747;SDS011;54543;50.712;6.070;2023-07-30T12:08:49;4.07;;;1.80;;
67747;SDS011;54543;50.712;6.070;2023-07-30T12:11:16;5.60;;;1.75;;
67747;SDS011;54543;50.712;6.070;2023-07-30T12:13:45;4.40;;;1.80;;
67747;SDS011;54543;50.712;6.070;2023-07-30T12:16:12;4.13;;;1.70;;
67747;SDS011;54543;50.712;6.070;2023-07-30T12:18:39;4.22;;;1.70;;
67747;SDS011;54543;50.712;6.070;2023-07-30T12:21:05;4.10;;;1.83;;
67747;SDS011;54543;50.712;6.070;2023-07-30T12:23:36;4.32;;;1.55;;
67747;SDS011;54543;50.712;6.070;2023-07-30T12:26:05;3.42;;;1.58;;
67747;SDS011;54543;50.712;6.070;2023-07-30T12:28:33;4.60;;;1.52;;
67747;SDS011;54543;50.712;6.070;2023-07-30T12:30:59;7.78;;;2.53;;
67747;SDS011;54543;50.712;6.070;2023-07-30T12:33:25;3.75;;;1.50;;
67747;SDS011;54543;50.712;6.070;2023-07-30T12:35:52;2.92;;;1.30;;
67747;SDS011;54543;50.712;6.070;2023-07-30T12:38:18;5.97;;;1.38;;
67747;SDS011;54543;50.712;6.070;2023-07-30T12:40:44;3.35;;;1.60;;
67747;SDS011;54543;50.712;6.070;2023-07-30T12:43:10;2.90;;;1.60;;
67747;SDS011;54543;50.712;6.070;2023-07-30T12:45:35;5.68;;;1.75;;
67747;SDS011;54543;50.712;6.070;2023-07-30T12:48:01;7.47;;;1.50;;
67747;SDS011;54543;50.712;6.070;2023-07-30T12:50:27;4.15;;;1.38;;
67747;SDS011;54543;50.712;6.070;2023-07-30T12:52:52;4.25;;;1.63;;
67747;SDS011;54543;50.712;6.070;2023-07-30T12:55:18;3.72;;;1.50;;
67747;SDS011;54543;50.712;6.070;2023-07-30T12:57:44;3.10;;;1.50;;
67747;SDS011;54543;50.712;6.070;2023-07-30T13:00:09;5.95;;;1.60;;
67747;SDS011;54543;50.712;6.070;2023-07-30T13:02:36;6.03;;;1.95;;
67747;SDS011;54543;50.712;6.070;2023-07-30T13:05:01;4.78;;;1.50;;
67747;SDS011;54543;50.712;6.070;2023-07-30T13:07:29;4.85;;;1.50;;
67747;SDS011;54543;50.712;6.070;2023-07-30T13:12:30;4.13;;;1.30;;
67747;SDS011;54543;50.712;6.070;2023-07-30T13:14:57;4.20;;;1.67;;
67747;SDS011;54543;50.712;6.070;2023-07-30T13:17:23;3.58;;;1.35;;
67747;SDS011;54543;50.712;6.070;2023-07-30T13:19:49;3.70;;;1.27;;
67747;SDS011;54543;50.712;6.070;2023-07-30T13:22:14;3.85;;;1.67;;
67747;SDS011;54543;50.712;6.070;2023-07-30T13:24:40;6.10;;;2.10;;
67747;SDS011;54543;50.712;6.070;2023-07-30T13:27:05;2.33;;;1.40;;
67747;SDS011;54543;50.712;6.070;2023-07-30T13:29:31;3.58;;;1.92;;
67747;SDS011;54543;50.712;6.070;2023-07-30T13:31:56;5.13;;;1.65;;
67747;SDS011;54543;50.712;6.070;2023-07-30T13:34:22;3.88;;;1.88;;
67747;SDS011;54543;50.712;6.070;2023-07-30T13:36:48;2.83;;;1.30;;
67747;SDS011;54543;50.712;6.070;2023-07-30T13:39:14;3.20;;;1.48;;
67747;SDS011;54543;50.712;6.070;2023-07-30T13:41:41;4.97;;;1.60;;
67747;SDS011;54543;50.712;6.070;2023-07-30T13:44:09;3.90;;;1.50;;
67747;SDS011;54543;50.712;6.070;2023-07-30T13:46:36;5.20;;;1.70;;
67747;SDS011;54543;50.712;6.070;2023-07-30T13:49:04;4.72;;;1.38;;
67747;SDS011;54543;50.712;6.070;2023-07-30T13:51:29;4.35;;;1.80;;
67747;SDS011;54543;50.712;6.070;2023-07-30T13:54:00;4.40;;;1.48;;
67747;SDS011;54543;50.712;6.070;2023-07-30T13:56:32;3.13;;;1.42;;
67747;SDS011;54543;50.712;6.070;2023-07-30T13:58:57;3.97;;;1.85;;
67747;SDS011;54543;50.712;6.070;2023-07-30T14:01:23;2.72;;;1.30;;
67747;SDS011;54543;50.712;6.070;2023-07-30T14:03:49;7.65;;;1.77;;
67747;SDS011;54543;50.712;6.070;2023-07-30T14:06:17;3.17;;;1.50;;
67747;SDS011;54543;50.712;6.070;2023-07-30T14:11:11;3.58;;;1.75;;
67747;SDS011;54543;50.712;6.070;2023-07-30T14:13:37;4.85;;;1.55;;
67747;SDS011;54543;50.712;6.070;2023-07-30T14:16:02;6.53;;;1.98;;
67747;SDS011;54543;50.712;6.070;2023-07-30T14:18:28;3.35;;;1.50;;
67747;SDS011;54543;50.712;6.070;2023-07-30T14:20:53;4.53;;;1.52;;
67747;SDS011;54543;50.712;6.070;2023-07-30T14:23:19;3.67;;;1.55;;
67747;SDS011;54543;50.712;6.070;2023-07-30T14:25:44;5.75;;;1.42;;
67747;SDS011;54543;50.712;6.070;2023-07-30T14:28:10;3.17;;;1.50;;
67747;SDS011;54543;50.712;6.070;2023-07-30T14:30:37;2.92;;;1.50;;
67747;SDS011;54543;50.712;6.070;2023-07-30T14:33:09;4.38;;;1.80;;
67747;SDS011;54543;50.712;6.070;2023-07-30T14:35:38;5.35;;;1.70;;
67747;SDS011;54543;50.712;6.070;2023-07-30T14:38:06;3.80;;;1.40;;
67747;SDS011;54543;50.712;6.070;2023-07-30T14:40:33;4.97;;;1.55;;
67747;SDS011;54543;50.712;6.070;2023-07-30T14:42:58;5.72;;;2.25;;
67747;SDS011;54543;50.712;6.070;2023-07-30T14:45:24;6.07;;;2.40;;
67747;SDS011;54543;50.712;6.070;2023-07-30T14:47:50;8.93;;;2.22;;
67747;SDS011;54543;50.712;6.070;2023-07-30T14:50:16;5.22;;;2.17;;
67747;SDS011;54543;50.712;6.070;2023-07-30T14:52:41;4.50;;;2.25;;
67747;SDS011;54543;50.712;6.070;2023-07-30T14:55:07;4.55;;;2.38;;
67747;SDS011;54543;50.712;6.070;2023-07-30T14:57:33;3.35;;;2.28;;